Time;durP1;ratioP1;P1;durP2;ratioP2;P2;SDS_P1;SDS_P2;PMS_P1;PMS_P2;Temp;Humidity;BMP_temperature;BMP_pressure;BME280_temperature;BME280_humidity;BME280_pressure;Samples;Min_cycle;Max_cycle;Signal;HPM_P1;HPM_P2
2022/10/12 00:01:32;;;;;;;39.03;15.97;;;;;;;4.82;100.00;100860.56;4163998;28;20247;-70
2022/10/12 00:03:59;;;;;;;47.17;16.80;;;;;;;4.81;100.00;100853.59;4165116;28;20630;-72
2022/10/12 00:06:25;;;;;;;42.87;16.67;;;;;;;4.83;100.00;100850.88;4179116;28;20241;-71
2022/10/12 00:08:53;;;;;;;41.43;15.50;;;;;;;4.89;100.00;100858.38;4175849;28;20539;-69
2022/10/12 00:11:25;;;;;;;41.67;16.80;;;;;;;4.82;100.00;100862.34;4164229;28;20447;-69
2022/10/12 00:13:52;;;;;;;44.20;16.47;;;;;;;4.88;100.00;100858.47;4157141;28;20737;-69
2022/10/12 00:16:20;;;;;;;41.50;15.67;;;;;;;4.85;100.00;100856.88;4167132;28;21745;-69
2022/10/12 00:18:51;;;;;;;43.67;16.40;;;;;;;4.82;100.00;100851.78;4165922;28;23406;-72
2022/10/12 00:21:17;;;;;;;43.33;16.53;;;;;;;4.74;100.00;100854.91;4132175;28;20235;-69
2022/10/12 00:23:44;;;;;;;51.27;18.00;;;;;;;4.65;100.00;100858.13;4158547;28;20237;-68
2022/10/12 00:26:17;;;;;;;42.10;16.07;;;;;;;4.65;100.00;100861.63;4156331;28;20634;-68
2022/10/12 00:28:43;;;;;;;38.50;15.67;;;;;;;4.67;100.00;100861.53;4160261;28;20975;-69
2022/10/12 00:31:13;;;;;;;38.97;16.27;;;;;;;4.64;100.00;100854.66;4163454;28;20401;-70
2022/10/12 00:33:40;;;;;;;42.80;16.77;;;;;;;4.60;100.00;100861.06;4160168;28;20227;-70
2022/10/12 00:36:15;;;;;;;47.00;17.23;;;;;;;4.58;100.00;100865.56;4166764;28;20248;-69
2022/10/12 00:38:42;;;;;;;43.37;15.83;;;;;;;4.63;100.00;100860.84;4151278;28;21806;-69
2022/10/12 00:41:09;;;;;;;45.67;17.13;;;;;;;4.70;100.00;100858.69;4155435;28;20240;-69
2022/10/12 00:43:40;;;;;;;38.43;16.37;;;;;;;4.81;100.00;100860.66;4154805;28;20240;-71
2022/10/12 00:46:36;;;;;;;49.00;18.10;;;;;;;4.69;100.00;100861.44;4156321;28;21208;-68
2022/10/12 00:49:11;;;;;;;41.10;16.47;;;;;;;4.72;100.00;100862.06;4150956;28;20692;-70
2022/10/12 00:51:43;;;;;;;43.07;18.13;;;;;;;4.73;100.00;100860.28;4161958;28;21623;-68
2022/10/12 00:54:13;;;;;;;49.93;17.67;;;;;;;4.65;100.00;100858.97;4164692;28;23029;-69
2022/10/12 00:56:42;;;;;;;53.70;17.87;;;;;;;4.65;100.00;100858.97;4155497;28;21605;-70
2022/10/12 00:59:11;;;;;;;38.73;16.67;;;;;;;4.62;100.00;100861.81;4161897;28;20239;-69
2022/10/12 01:01:38;;;;;;;44.83;16.90;;;;;;;4.62;100.00;100863.63;4167645;28;20404;-71
2022/10/12 01:04:05;;;;;;;47.97;17.47;;;;;;;4.60;100.00;100874.25;4155785;28;20250;-70
2022/10/12 01:06:32;;;;;;;43.13;16.77;;;;;;;4.54;100.00;100877.28;4167571;28;24910;-69
2022/10/12 01:08:59;;;;;;;40.17;17.43;;;;;;;4.43;100.00;100875.28;4153488;28;20377;-70
2022/10/12 01:11:25;;;;;;;50.70;17.10;;;;;;;4.38;100.00;100880.00;4167529;28;20428;-70
2022/10/12 01:13:52;;;;;;;50.43;16.80;;;;;;;4.35;100.00;100879.34;4159715;28;20281;-70
2022/10/12 01:16:32;;;;;;;40.80;17.00;;;;;;;4.32;100.00;100879.53;4168877;28;20239;-68
2022/10/12 01:19:43;;;;;;;42.57;18.40;;;;;;;4.26;100.00;100882.53;4163583;28;21906;-70
2022/10/12 01:22:14;;;;;;;54.27;17.53;;;;;;;4.23;100.00;100884.41;4164696;28;20437;-70
2022/10/12 01:24:51;;;;;;;45.93;18.17;;;;;;;4.29;100.00;100885.00;4159984;28;21737;-68
2022/10/12 01:27:50;;;;;;;47.60;17.70;;;;;;;4.29;100.00;100885.00;4154905;28;20235;-69
2022/10/12 01:30:22;;;;;;;44.97;17.37;;;;;;;4.26;100.00;100882.53;4181341;28;20234;-70
2022/10/12 01:32:53;;;;;;;39.80;17.20;;;;;;;4.30;100.00;100889.31;4157243;28;20243;-68
2022/10/12 01:35:24;;;;;;;52.60;18.23;;;;;;;4.35;100.00;100887.25;4177704;28;21047;-69
2022/10/12 01:38:11;;;;;;;42.00;16.77;;;;;;;4.25;100.00;100881.69;4176034;28;20596;-70
2022/10/12 01:40:43;;;;;;;56.20;17.43;;;;;;;4.23;100.00;100883.56;4191148;28;20235;-68
2022/10/12 01:43:09;;;;;;;44.37;16.53;;;;;;;4.26;100.00;100882.53;4165642;28;20250;-70
2022/10/12 01:45:36;;;;;;;44.53;17.77;;;;;;;4.19;100.00;100887.31;4169098;28;20240;-70
2022/10/12 01:48:03;;;;;;;42.97;17.17;;;;;;;4.17;100.00;100883.97;4167866;28;20260;-69
2022/10/12 01:50:36;;;;;;;46.13;17.53;;;;;;;4.12;100.00;100893.91;4162188;28;20246;-70
2022/10/12 01:53:26;;;;;;;40.53;16.13;;;;;;;4.10;100.00;100883.47;4170499;28;20919;-68
2022/10/12 01:56:20;;;;;;;43.77;17.60;;;;;;;4.07;100.00;100886.28;4163466;28;20278;-69
2022/10/12 01:59:16;;;;;;;47.07;17.70;;;;;;;4.01;100.00;100892.75;4161337;28;25290;-69
2022/10/12 02:01:51;;;;;;;42.50;18.17;;;;;;;3.97;100.00;100893.03;4165542;28;20363;-70
2022/10/12 02:04:27;;;;;;;46.93;17.00;;;;;;;3.95;100.00;100890.47;4150985;28;20639;-70
2022/10/12 02:07:00;;;;;;;43.10;16.97;;;;;;;3.96;100.00;100896.63;4155488;28;20371;-69
2022/10/12 02:09:28;;;;;;;45.77;17.97;;;;;;;4.00;100.00;100898.09;4164969;28;20320;-70
2022/10/12 02:11:57;;;;;;;55.10;18.23;;;;;;;3.92;100.00;100893.31;4169033;28;23587;-69
2022/10/12 02:14:30;;;;;;;48.97;17.70;;;;;;;3.89;100.00;100895.28;4154710;28;20252;-69
2022/10/12 02:17:03;;;;;;;43.57;18.83;;;;;;;3.90;100.00;100897.81;4151905;28;20237;-69
2022/10/12 02:19:34;;;;;;;51.47;17.40;;;;;;;3.86;100.00;100892.81;4157376;28;20323;-69
2022/10/12 02:22:04;;;;;;;38.23;16.53;;;;;;;3.95;100.00;100900.19;4135922;28;23012;-69
2022/10/12 02:24:32;;;;;;;43.73;18.87;;;;;;;3.89;100.00;100906.66;4146312;28;20245;-69
2022/10/12 02:26:59;;;;;;;49.27;17.90;;;;;;;3.87;100.00;100900.63;4156219;28;20255;-69
2022/10/12 02:29:33;;;;;;;43.43;17.43;;;;;;;3.84;100.00;100908.72;4162782;28;20253;-69
2022/10/12 02:32:23;;;;;;;47.13;17.73;;;;;;;3.85;100.00;100904.31;4160026;28;20600;-71
2022/10/12 02:34:55;;;;;;;45.40;17.43;;;;;;;3.85;100.00;100905.16;4161326;28;20249;-69
2022/10/12 02:37:24;;;;;;;48.47;18.97;;;;;;;3.76;100.00;100905.69;4152266;28;20364;-69
2022/10/12 02:39:58;;;;;;;46.00;17.70;;;;;;;3.74;100.00;100908.38;4157320;28;20604;-69
2022/10/12 02:42:30;;;;;;;45.27;16.97;;;;;;;3.72;100.00;100910.28;4153735;28;20636;-68
2022/10/12 02:45:18;;;;;;;52.13;17.90;;;;;;;3.73;100.00;100911.97;4162402;28;20314;-69
2022/10/12 02:47:46;;;;;;;42.00;18.50;;;;;;;3.76;100.00;100906.53;4155619;28;20255;-69
2022/10/12 02:50:14;;;;;;;45.63;18.17;;;;;;;3.79;100.00;100911.63;4154634;28;20318;-69
2022/10/12 02:52:41;;;;;;;47.63;18.50;;;;;;;3.76;100.00;100908.31;4168355;28;20230;-69
2022/10/12 02:55:07;;;;;;;49.70;17.47;;;;;;;3.75;100.00;100914.53;4159240;28;20302;-69
2022/10/12 02:57:34;;;;;;;47.53;18.40;;;;;;;3.68;100.00;100913.19;4167710;28;21307;-69
2022/10/12 03:00:00;;;;;;;44.40;17.33;;;;;;;3.67;100.00;100908.84;4167666;28;20314;-70
2022/10/12 03:02:27;;;;;;;41.33;16.87;;;;;;;3.68;100.00;100902.66;4163559;28;21155;-69
2022/10/12 03:04:53;;;;;;;44.70;17.17;;;;;;;3.65;100.00;100905.44;4160851;28;20593;-70
2022/10/12 03:07:20;;;;;;;46.07;17.70;;;;;;;3.66;100.00;100905.38;4169282;28;20230;-69
2022/10/12 03:09:46;;;;;;;47.20;17.90;;;;;;;3.65;100.00;100894.94;4165842;28;20234;-69
2022/10/12 03:12:13;;;;;;;46.17;18.97;;;;;;;3.58;100.00;100897.06;4159184;28;26471;-72
2022/10/12 03:14:39;;;;;;;52.43;17.53;;;;;;;3.57;100.00;100895.38;4177805;28;20310;-68
2022/10/12 03:17:06;;;;;;;44.17;17.07;;;;;;;3.67;100.00;100896.53;4172186;28;22797;-70
2022/10/12 03:19:33;;;;;;;40.97;17.80;;;;;;;3.68;100.00;100892.97;4158691;28;21884;-70
2022/10/12 03:21:59;;;;;;;43.93;17.20;;;;;;;3.71;100.00;100898.06;4167783;28;22954;-69
2022/10/12 03:24:26;;;;;;;50.00;17.20;;;;;;;3.77;100.00;100897.72;4166132;28;20651;-71
2022/10/12 03:26:53;;;;;;;44.73;17.90;;;;;;;3.79;100.00;100897.59;4161375;28;22470;-69
2022/10/12 03:29:19;;;;;;;46.60;17.77;;;;;;;3.70;100.00;100896.38;4170333;28;20334;-68
2022/10/12 03:31:46;;;;;;;39.37;17.27;;;;;;;3.70;100.00;100900.75;4162882;28;22278;-69
2022/10/12 03:34:12;;;;;;;51.87;18.93;;;;;;;3.70;100.00;100906.03;4162304;28;20424;-70
2022/10/12 03:36:39;;;;;;;46.00;17.43;;;;;;;3.77;100.00;100908.22;4165693;28;20234;-69
2022/10/12 03:39:05;;;;;;;51.43;18.07;;;;;;;3.71;100.00;100910.38;4162581;28;20310;-69
2022/10/12 03:41:32;;;;;;;47.13;18.13;;;;;;;3.64;100.00;100901.13;4156512;28;23597;-70
2022/10/12 03:43:58;;;;;;;44.10;18.10;;;;;;;3.70;100.00;100904.25;4152986;28;20301;-69
2022/10/12 03:46:25;;;;;;;39.33;17.40;;;;;;;3.68;100.00;100907.94;4161182;28;20254;-68
2022/10/12 03:48:51;;;;;;;44.37;17.87;;;;;;;3.69;100.00;100907.81;4170235;28;21245;-69
2022/10/12 03:51:18;;;;;;;49.20;17.57;;;;;;;3.61;100.00;100907.44;4162235;28;21175;-68
2022/10/12 03:53:44;;;;;;;41.00;18.53;;;;;;;3.68;100.00;100903.50;4164131;28;20950;-68
2022/10/12 03:56:11;;;;;;;43.03;18.10;;;;;;;3.62;100.00;100903.84;4170469;28;20239;-68
2022/10/12 03:58:38;;;;;;;48.67;18.67;;;;;;;3.62;100.00;100908.28;4163539;28;20303;-68
2022/10/12 04:01:04;;;;;;;51.03;18.47;;;;;;;3.67;100.00;100907.06;4161477;28;20227;-69
2022/10/12 04:03:32;;;;;;;50.23;18.03;;;;;;;3.63;100.00;100905.56;4154274;28;20257;-68
2022/10/12 04:05:58;;;;;;;43.63;17.67;;;;;;;3.60;100.00;100903.09;4158300;28;21768;-68
2022/10/12 04:08:28;;;;;;;48.43;17.80;;;;;;;3.55;100.00;100907.78;4166394;28;20300;-69
2022/10/12 04:10:54;;;;;;;44.70;18.50;;;;;;;3.48;100.00;100901.16;4162440;28;22271;-67
2022/10/12 04:13:21;;;;;;;49.20;18.77;;;;;;;3.52;100.00;100906.16;4168517;28;20234;-69
2022/10/12 04:15:48;;;;;;;47.30;17.80;;;;;;;3.59;100.00;100909.28;4152433;28;20245;-67
2022/10/12 04:18:14;;;;;;;50.23;19.67;;;;;;;3.59;100.00;100901.41;4161087;28;21105;-69
2022/10/12 04:20:41;;;;;;;51.60;17.90;;;;;;;3.62;100.00;100905.63;4162779;28;20235;-68
2022/10/12 04:23:07;;;;;;;45.20;18.70;;;;;;;3.55;100.00;100902.50;4160912;28;20246;-69
2022/10/12 04:25:34;;;;;;;45.77;17.87;;;;;;;3.63;100.00;100907.31;4161704;28;20244;-69
2022/10/12 04:28:00;;;;;;;39.13;17.77;;;;;;;3.65;100.00;100914.19;4166488;28;24194;-70
2022/10/12 04:30:27;;;;;;;55.23;19.17;;;;;;;3.57;100.00;100908.53;4159337;28;21850;-69
2022/10/12 04:32:54;;;;;;;53.87;21.07;;;;;;;3.63;100.00;100909.94;4163180;28;20421;-68
2022/10/12 04:35:21;;;;;;;46.97;19.80;;;;;;;3.65;100.00;100903.66;4167210;28;26380;-68
2022/10/12 04:37:47;;;;;;;45.30;18.80;;;;;;;3.64;100.00;100911.66;4162103;28;20637;-70
2022/10/12 04:40:13;;;;;;;50.83;20.27;;;;;;;3.70;100.00;100911.28;4166490;28;22294;-67
2022/10/12 04:42:40;;;;;;;50.67;19.83;;;;;;;3.69;100.00;100915.72;4164558;28;20230;-69
2022/10/12 04:45:07;;;;;;;52.87;20.57;;;;;;;3.63;100.00;100913.47;4165473;28;20382;-68
2022/10/12 04:47:34;;;;;;;56.60;20.17;;;;;;;3.70;100.00;100912.16;4158485;28;21132;-67
2022/10/12 04:50:01;;;;;;;42.37;18.77;;;;;;;3.70;100.00;100912.16;4155352;28;20235;-70
2022/10/12 04:52:28;;;;;;;47.37;19.73;;;;;;;3.75;100.00;100915.38;4150427;28;25653;-69
2022/10/12 04:54:54;;;;;;;50.63;20.03;;;;;;;3.70;100.00;100912.16;4169512;28;20240;-70
2022/10/12 04:57:21;;;;;;;49.67;20.63;;;;;;;3.81;100.00;100920.25;4166249;28;21468;-70
2022/10/12 04:59:47;;;;;;;46.17;19.03;;;;;;;3.78;100.00;100922.22;4170618;28;20334;-69
2022/10/12 05:02:14;;;;;;;51.70;21.10;;;;;;;3.77;100.00;100923.19;4169200;28;21866;-66
2022/10/12 05:04:41;;;;;;;45.93;20.57;;;;;;;3.69;100.00;100928.88;4162831;28;20240;-69
2022/10/12 05:07:07;;;;;;;44.77;19.40;;;;;;;3.75;100.00;100935.59;4174190;28;20320;-67
2022/10/12 05:09:34;;;;;;;45.53;19.33;;;;;;;3.71;100.00;100934.91;4172476;28;20237;-69
2022/10/12 05:12:00;;;;;;;50.60;20.03;;;;;;;3.68;100.00;100929.81;4159711;28;20300;-69
2022/10/12 05:14:28;;;;;;;39.83;19.10;;;;;;;3.63;100.00;100937.13;4189068;28;22898;-69
2022/10/12 05:17:01;;;;;;;45.13;18.80;;;;;;;3.61;100.00;100939.00;4171680;28;21769;-69
2022/10/12 05:19:28;;;;;;;51.77;20.70;;;;;;;3.57;100.00;100948.00;4159765;28;20447;-67
2022/10/12 05:21:55;;;;;;;43.77;19.93;;;;;;;3.57;100.00;100942.75;4161763;28;20306;-68
2022/10/12 05:24:21;;;;;;;48.07;21.73;;;;;;;3.58;100.00;100941.78;4169920;28;21530;-67
2022/10/12 05:26:48;;;;;;;52.50;20.60;;;;;;;3.67;100.00;100951.78;4169193;28;20337;-67
2022/10/12 05:29:15;;;;;;;56.33;22.30;;;;;;;3.71;100.00;100952.47;4168861;28;20420;-68
2022/10/12 05:31:42;;;;;;;48.20;20.23;;;;;;;3.79;100.00;100955.50;4166331;28;22891;-67
2022/10/12 05:34:08;;;;;;;45.83;19.73;;;;;;;3.81;100.00;100959.75;4169704;28;20292;-66
2022/10/12 05:36:35;;;;;;;54.70;20.97;;;;;;;3.84;100.00;100957.88;4173737;28;20247;-70
2022/10/12 05:39:04;;;;;;;58.83;21.30;;;;;;;3.77;100.00;100958.25;4162056;28;21314;-68
2022/10/12 05:41:31;;;;;;;53.27;21.30;;;;;;;3.74;100.00;100955.78;4159278;28;20237;-71
2022/10/12 05:43:57;;;;;;;48.23;20.03;;;;;;;3.85;100.00;100963.06;4161662;28;22973;-69
2022/10/12 05:46:24;;;;;;;57.73;20.57;;;;;;;3.92;100.00;100963.56;4163003;28;20237;-68
2022/10/12 05:48:50;;;;;;;57.13;21.43;;;;;;;3.99;100.00;100970.16;4163895;28;21961;-68
2022/10/12 05:51:17;;;;;;;50.57;21.23;;;;;;;4.11;100.00;100964.16;4167320;28;20247;-66
2022/10/12 05:53:44;;;;;;;53.53;20.23;;;;;;;4.20;100.00;100962.78;4178176;28;22327;-70
2022/10/12 05:56:10;;;;;;;59.57;22.03;;;;;;;4.29;100.00;100961.41;4177757;28;21908;-66
2022/10/12 05:58:37;;;;;;;52.17;21.70;;;;;;;4.30;100.00;100963.06;4152592;28;20249;-70
2022/10/12 06:01:11;;;;;;;55.97;22.87;;;;;;;4.35;100.00;100966.28;4165007;28;20234;-63
2022/10/12 06:03:37;;;;;;;61.73;21.77;;;;;;;4.37;100.00;100969.66;4154952;28;20926;-70
2022/10/12 06:06:05;;;;;;;54.80;20.60;;;;;;;4.42;100.00;100972.88;4164061;28;22330;-67
2022/10/12 06:08:32;;;;;;;55.20;19.20;;;;;;;4.45;100.00;100972.72;4164799;28;21289;-68
2022/10/12 06:10:59;;;;;;;46.60;18.60;;;;;;;4.52;100.00;100974.03;4156932;28;21578;-68
2022/10/12 06:13:25;;;;;;;53.13;18.60;;;;;;;4.53;100.00;100973.06;4171745;28;22736;-69
2022/10/12 06:15:52;;;;;;;53.00;19.37;;;;;;;4.60;100.00;100977.03;4161207;28;20235;-67
2022/10/12 06:18:19;;;;;;;50.27;19.13;;;;;;;4.75;100.00;100977.03;4164709;28;20436;-66
2022/10/12 06:20:52;;;;;;;45.60;20.13;;;;;;;4.85;100.00;100980.81;4162559;28;20247;-66
2022/10/12 06:23:39;;;;;;;46.87;17.27;;;;;;;4.71;100.00;100976.41;4171719;28;20272;-67
2022/10/12 06:26:05;;;;;;;48.73;18.60;;;;;;;4.80;100.00;100982.88;4158451;28;20235;-65
2022/10/12 06:28:32;;;;;;;43.87;18.30;;;;;;;4.74;100.00;100988.53;4175177;28;20252;-66
2022/10/12 06:31:00;;;;;;;39.23;17.90;;;;;;;4.86;100.00;100987.78;4167813;28;20235;-68
2022/10/12 06:33:27;;;;;;;48.23;17.83;;;;;;;4.86;100.00;100979.88;4188671;28;20246;-72
2022/10/12 06:35:54;;;;;;;46.40;18.47;;;;;;;4.86;100.00;100982.50;4150978;28;20313;-67
2022/10/12 06:38:21;;;;;;;39.40;17.73;;;;;;;4.93;100.00;100985.63;4170929;28;20977;-66
2022/10/12 06:40:48;;;;;;;44.93;18.20;;;;;;;4.93;100.00;100989.09;4164564;28;20658;-66
2022/10/12 06:43:14;;;;;;;51.23;18.93;;;;;;;4.98;100.00;100984.38;4164315;28;20440;-67
2022/10/12 06:45:41;;;;;;;44.13;17.40;;;;;;;5.10;100.00;100992.47;4165114;28;20309;-66
2022/10/12 06:48:07;;;;;;;56.17;18.77;;;;;;;5.16;100.00;100992.09;4165607;28;22297;-67
2022/10/12 06:50:34;;;;;;;49.30;18.57;;;;;;;5.33;100.00;100991.88;4165147;28;20247;-67
2022/10/12 06:53:01;;;;;;;51.90;17.43;;;;;;;5.42;100.00;100999.19;4156629;28;20490;-66
2022/10/12 06:55:30;;;;;;;46.07;18.50;;;;;;;5.58;100.00;100998.22;4158555;28;20245;-66
2022/10/12 06:57:56;;;;;;;47.87;16.67;;;;;;;5.59;100.00;100994.63;4153533;29;20241;-68
2022/10/12 07:00:23;;;;;;;51.63;16.87;;;;;;;5.75;100.00;100994.50;4157122;29;22106;-67
2022/10/12 07:02:51;;;;;;;53.40;16.80;;;;;;;5.85;100.00;100993.78;4180973;28;21609;-68
2022/10/12 07:05:18;;;;;;;40.50;15.80;;;;;;;5.88;100.00;100998.88;4165490;29;21795;-66
2022/10/12 07:07:44;;;;;;;40.73;16.03;;;;;;;6.06;100.00;100996.84;4174278;28;20934;-67
2022/10/12 07:10:11;;;;;;;52.53;16.87;;;;;;;6.06;100.00;100998.63;4148493;29;20308;-68
2022/10/12 07:12:37;;;;;;;39.60;15.13;;;;;;;6.21;100.00;101005.53;4156217;29;20416;-68
2022/10/12 07:15:05;;;;;;;38.97;15.97;;;;;;;6.45;100.00;101005.66;4142098;29;21580;-68
2022/10/12 07:17:32;;;;;;;38.40;15.00;;;;;;;6.60;100.00;101009.06;4153994;28;21664;-66
2022/10/12 07:19:59;;;;;;;35.20;14.73;;;;;;;6.77;100.00;101013.19;4173016;29;20695;-66
2022/10/12 07:22:26;;;;;;;43.27;15.10;;;;;;;6.92;100.00;101011.28;4171039;29;20581;-73
2022/10/12 07:37:35;;;;;;;33.07;11.03;;;;;;;20.20;43.74;101082.13;4024505;27;9274511;-70
2022/10/12 07:40:09;;;;;;;28.23;10.67;;;;;;;23.08;34.19;101102.22;4248150;28;20272;-67
2022/10/12 07:42:36;;;;;;;26.43;10.20;;;;;;;24.70;30.74;101109.44;4246144;28;20520;-67
2022/10/12 07:45:22;;;;;;;27.43;10.90;;;;;;;24.58;28.61;101110.19;4249323;28;20403;-66
2022/10/12 07:47:55;;;;;;;31.23;10.40;;;;;;;25.01;28.94;101101.22;4240389;28;20341;-66
2022/10/12 07:50:22;;;;;;;26.37;10.90;;;;;;;25.47;26.85;101108.09;4245949;28;20261;-66
2022/10/12 07:52:48;;;;;;;26.03;10.73;;;;;;;26.21;26.53;101107.16;4237428;28;22389;-65
2022/10/12 07:55:21;;;;;;;30.53;10.67;;;;;;;26.14;25.99;101107.25;4227989;28;20248;-69
2022/10/12 07:57:48;;;;;;;27.57;10.33;;;;;;;26.89;24.71;101105.91;4241012;28;20230;-67
2022/10/12 08:00:14;;;;;;;30.73;10.53;;;;;;;26.76;25.00;101112.41;4255809;28;21665;-66
2022/10/12 08:02:47;;;;;;;25.13;10.13;;;;;;;26.66;24.55;101106.69;4255066;28;21245;-67
2022/10/12 08:05:14;;;;;;;23.73;10.47;;;;;;;25.79;25.91;101102.47;4255884;28;22831;-65
2022/10/12 08:07:40;;;;;;;22.77;10.27;;;;;;;26.14;25.88;101107.25;4241410;28;20294;-67
2022/10/12 08:10:13;;;;;;;21.40;8.90;;;;;;;25.47;26.05;101101.78;4236093;28;20236;-68
2022/10/12 08:12:40;;;;;;;27.20;10.07;;;;;;;24.87;27.32;101098.84;4237219;28;20230;-66
2022/10/12 08:15:07;;;;;;;29.57;9.73;;;;;;;26.63;25.07;101108.00;4242920;28;21784;-69
2022/10/12 08:17:40;;;;;;;28.37;10.10;;;;;;;26.02;24.78;101104.50;4239832;28;20234;-66
2022/10/12 08:20:07;;;;;;;24.67;9.43;;;;;;;27.24;23.81;101105.09;4243040;28;21446;-66
2022/10/12 08:22:33;;;;;;;23.77;9.67;;;;;;;27.06;23.60;101106.00;4246641;28;21379;-65
2022/10/12 08:25:06;;;;;;;21.37;9.43;;;;;;;26.24;24.02;101106.69;4247558;28;23663;-67
2022/10/12 08:27:34;;;;;;;23.90;9.13;;;;;;;26.98;23.70;101101.75;4231481;28;20265;-66
2022/10/12 08:30:01;;;;;;;25.27;9.13;;;;;;;24.87;26.37;101091.50;4229163;28;25033;-66
2022/10/12 08:32:34;;;;;;;24.50;9.07;;;;;;;25.11;26.18;101094.44;4232565;28;20230;-66
2022/10/12 08:35:01;;;;;;;27.40;9.37;;;;;;;26.38;24.83;101097.25;4236406;28;21166;-67
2022/10/12 08:37:34;;;;;;;31.25;8.63;;;;;;;28.03;22.59;101110.00;4221818;28;20237;-68
2022/10/12 08:40:13;;;;;;;20.53;8.70;;;;;;;28.15;21.65;101108.88;4224807;28;20230;-70
2022/10/12 08:42:47;;;;;;;19.83;8.57;;;;;;;26.26;24.26;101089.03;4208734;28;20520;-65
2022/10/12 08:45:34;;;;;;;21.73;8.47;;;;;;;24.88;26.50;101078.72;4228774;28;21170;-65
2022/10/12 08:48:17;;;;;;;24.73;8.37;;;;;;;20.32;33.57;101051.88;4234710;28;25894;-67
2022/10/12 08:51:02;;;;;;;23.97;8.80;;;;;;;18.49;37.43;101050.72;4224811;28;20422;-66
2022/10/12 08:53:46;;;;;;;23.57;7.90;;;;;;;17.68;39.68;101042.19;4212372;28;20416;-69
2022/10/12 08:56:19;;;;;;;19.73;8.10;;;;;;;16.87;41.98;101044.16;4218161;28;20370;-67
2022/10/12 08:58:47;;;;;;;22.97;7.40;;;;;;;15.80;45.77;101034.38;4225524;28;22076;-68
2022/10/12 09:01:22;;;;;;;19.30;7.60;;;;;;;15.99;46.29;101039.47;4215151;28;20236;-69
2022/10/12 09:04:12;;;;;;;25.03;7.77;;;;;;;15.46;48.14;101032.59;4207065;28;20238;-70
2022/10/12 09:06:45;;;;;;;22.17;7.80;;;;;;;15.01;50.17;101028.38;4221882;28;20925;-69
2022/10/12 09:09:45;;;;;;;27.00;8.03;;;;;;;15.03;50.68;101018.34;4216714;28;21121;-70
2022/10/12 09:12:22;;;;;;;23.47;7.83;;;;;;;14.83;51.12;101022.22;4225686;28;20233;-69
2022/10/12 09:14:59;;;;;;;24.20;6.93;;;;;;;15.26;50.09;101025.78;4222635;28;20415;-69
2022/10/12 09:17:29;;;;;;;18.93;6.97;;;;;;;15.77;49.07;101021.28;4222353;28;20228;-69
2022/10/12 09:20:32;;;;;;;22.27;6.60;;;;;;;15.61;48.18;101022.88;4213998;28;21521;-69
2022/10/12 09:23:27;;;;;;;16.80;6.27;;;;;;;15.10;49.25;101016.69;4220905;28;23688;-69
2022/10/12 09:26:08;;;;;;;24.23;7.17;;;;;;;15.01;50.90;101012.28;4219685;28;20294;-70
2022/10/12 09:28:43;;;;;;;26.93;7.30;;;;;;;15.18;50.27;101010.50;4218025;28;20242;-69
2022/10/12 09:31:42;;;;;;;21.67;6.27;;;;;;;14.85;51.38;101009.50;4212326;28;20231;-69
2022/10/12 09:34:09;;;;;;;22.13;6.50;;;;;;;14.54;52.84;101015.34;4229497;28;21597;-69
2022/10/12 09:36:54;;;;;;;21.17;5.93;;;;;;;14.44;52.08;101003.84;4224384;28;22651;-68
2022/10/12 09:39:27;;;;;;;17.83;5.33;;;;;;;14.53;53.97;101003.75;4226930;28;21845;-43
2022/10/12 09:42:01;;;;;;;20.27;5.63;;;;;;;14.37;54.27;101006.31;4228996;28;20231;-69
2022/10/12 09:44:34;;;;;;;12.53;5.07;;;;;;;14.46;55.01;101001.84;4255969;28;22582;-72
2022/10/12 09:47:03;;;;;;;18.67;5.30;;;;;;;14.62;54.29;101007.34;4263510;28;20285;-70
2022/10/12 09:49:39;;;;;;;17.73;5.50;;;;;;;14.38;53.87;101002.66;4229531;28;22732;-70
2022/10/12 09:52:06;;;;;;;17.00;4.73;;;;;;;14.57;53.52;101005.16;4236919;28;20304;-70
2022/10/12 09:54:34;;;;;;;14.50;4.43;;;;;;;14.40;53.94;101003.34;4225748;28;20639;-69
2022/10/12 09:57:01;;;;;;;21.20;5.00;;;;;;;14.06;56.00;101000.53;4233577;28;20223;-68
2022/10/12 09:59:41;;;;;;;19.90;4.87;;;;;;;13.91;56.12;100997.56;4212470;28;21143;-69
2022/10/12 10:02:10;;;;;;;15.80;5.10;;;;;;;13.94;54.98;100998.09;4276079;28;21469;-68
2022/10/12 10:04:38;;;;;;;16.07;3.50;;;;;;;13.79;55.66;100999.63;4251076;28;20234;-69
2022/10/12 10:07:23;;;;;;;13.87;3.73;;;;;;;13.52;55.26;101004.00;4251639;28;20235;-69
2022/10/12 10:10:09;;;;;;;17.67;3.67;;;;;;;13.64;54.87;101001.13;4243551;28;20334;-70
2022/10/12 10:12:41;;;;;;;18.07;3.80;;;;;;;13.44;55.75;101006.59;4273054;28;20284;-69
2022/10/12 10:15:23;;;;;;;15.63;4.17;;;;;;;13.73;55.56;100992.19;4238848;28;20893;-70
2022/10/12 10:17:55;;;;;;;11.73;3.60;;;;;;;13.71;55.44;101003.03;4252458;28;20706;-73
2022/10/12 10:20:27;;;;;;;14.17;4.30;;;;;;;13.71;56.16;101004.88;4488932;23;20257;-67
2022/10/12 10:22:53;;;;;;;14.47;3.63;;;;;;;13.50;57.72;101000.63;4985613;28;20226;-69
2022/10/12 10:25:21;;;;;;;14.00;4.23;;;;;;;13.70;56.17;101004.03;4986650;28;20245;-68
2022/10/12 10:27:49;;;;;;;11.73;3.43;;;;;;;13.85;56.25;100998.16;5005228;28;20645;-68
2022/10/12 10:30:16;;;;;;;17.77;3.67;;;;;;;13.74;55.83;101001.91;5000647;28;20227;-66
2022/10/12 10:33:17;;;;;;;16.90;4.30;;;;;;;13.91;55.14;100990.38;5010634;28;20372;-67
2022/10/12 10:36:21;;;;;;;11.30;3.33;;;;;;;13.78;56.28;100984.56;5006534;28;20223;-67
2022/10/12 10:38:54;;;;;;;14.77;4.30;;;;;;;13.89;54.30;100978.97;4945708;28;20332;-67
2022/10/12 10:41:25;;;;;;;15.60;3.83;;;;;;;14.07;53.75;100983.47;5009896;28;20623;-68
2022/10/12 10:43:51;;;;;;;18.60;5.27;;;;;;;14.12;54.46;100974.00;5016783;28;20560;-66
2022/10/12 10:46:26;;;;;;;12.60;3.30;;;;;;;13.82;55.42;100974.41;5013613;28;20222;-65
2022/10/12 10:49:00;;;;;;;13.60;4.03;;;;;;;13.97;55.27;100974.69;5009852;28;20235;-65
2022/10/12 10:51:50;;;;;;;7.90;2.63;;;;;;;13.83;54.48;100973.41;4992780;28;20301;-68
2022/10/12 10:54:22;;;;;;;12.57;2.83;;;;;;;13.96;54.88;100965.00;5009016;28;20249;-68
2022/10/12 10:56:51;;;;;;;11.00;3.37;;;;;;;14.12;55.93;100965.97;4989466;28;20691;-65
2022/10/12 10:59:21;;;;;;;13.20;3.53;;;;;;;14.17;55.37;100975.38;4978895;28;20253;-70
2022/10/12 11:01:54;;;;;;;11.97;3.17;;;;;;;14.09;54.70;100968.97;4994650;28;20233;-65
2022/10/12 11:04:40;;;;;;;11.97;3.73;;;;;;;13.83;54.89;100966.22;5007655;28;20318;-67
2022/10/12 11:07:19;;;;;;;10.33;2.97;;;;;;;13.88;55.09;100955.03;5004897;28;20234;-66
2022/10/12 11:09:50;;;;;;;14.53;3.50;;;;;;;14.03;53.47;100966.06;4990931;28;20320;-66
2022/10/12 11:12:26;;;;;;;13.03;3.37;;;;;;;13.99;55.03;100962.00;4994774;28;20611;-66
2022/10/12 11:15:04;;;;;;;13.70;3.80;;;;;;;14.13;54.11;100964.97;4989390;28;22569;-65
2022/10/12 11:17:34;;;;;;;11.13;3.50;;;;;;;13.85;54.24;100956.19;4989753;28;20233;-65
2022/10/12 11:20:11;;;;;;;11.73;3.37;;;;;;;14.01;53.54;100949.31;5009240;28;20672;-66
2022/10/12 11:23:22;;;;;;;15.10;3.07;;;;;;;14.24;53.08;100955.84;4993840;28;20239;-67
2022/10/12 11:26:03;;;;;;;11.67;3.60;;;;;;;14.51;53.20;100968.25;5004626;28;20723;-68
2022/10/12 11:28:31;;;;;;;15.23;3.27;;;;;;;14.87;50.43;100957.44;5001975;28;20233;-67
2022/10/12 11:30:59;;;;;;;11.80;2.90;;;;;;;15.13;50.66;100960.06;5004229;28;20229;-68
2022/10/12 11:33:38;;;;;;;15.70;3.10;;;;;;;15.32;48.84;100955.44;5001148;28;20538;-67
2022/10/12 11:36:14;;;;;;;11.63;2.83;;;;;;;15.20;49.48;100969.13;4957354;28;20222;-67
2022/10/12 11:38:46;;;;;;;9.43;2.77;;;;;;;15.01;49.44;100957.81;4950775;28;20690;-67
2022/10/12 11:41:16;;;;;;;13.97;3.17;;;;;;;15.06;49.30;100956.34;4990740;28;20666;-67
2022/10/12 11:44:14;;;;;;;13.50;3.17;;;;;;;14.88;49.22;100956.44;4968124;28;20280;-67